createdAt,value
2023-04-29T00:03:51.701Z,100.00
2023-04-29T00:08:14.226Z,100.00
2023-04-29T00:12:36.809Z,100.00
2023-04-29T00:16:49.325Z,100.00
2023-04-29T00:21:01.789Z,100.00
2023-04-29T00:25:24.511Z,100.00
2023-04-29T00:29:37.673Z,100.00
2023-04-29T00:33:50.178Z,100.00
2023-04-29T00:38:02.662Z,100.00
2023-04-29T00:42:15.206Z,100.00
2023-04-29T00:46:28.283Z,100.00
2023-04-29T00:50:40.816Z,100.00
2023-04-29T00:54:53.706Z,100.00
2023-04-29T00:59:06.851Z,100.00
2023-04-29T01:03:20.468Z,100.00
2023-04-29T01:08:12.573Z,100.00
2023-04-29T01:12:42.321Z,100.00
2023-04-29T01:17:11.705Z,100.00
2023-04-29T01:21:26.529Z,100.00
2023-04-29T01:25:39.949Z,100.00
2023-04-29T01:30:03.619Z,100.00
2023-04-29T01:34:24.342Z,100.00
2023-04-29T01:38:48.668Z,100.00
2023-04-29T01:43:06.800Z,100.00
2023-04-29T01:47:19.593Z,100.00
2023-04-29T01:51:33.064Z,100.00
2023-04-29T01:55:45.612Z,100.00
2023-04-29T01:59:58.188Z,100.00
2023-04-29T02:04:16.799Z,100.00
2023-04-29T02:08:29.337Z,100.00
2023-04-29T02:12:41.784Z,100.00
2023-04-29T02:16:54.245Z,100.00
2023-04-29T02:21:07.109Z,100.00
2023-04-29T02:25:20.161Z,100.00
2023-04-29T02:29:35.382Z,100.00
2023-04-29T02:33:47.899Z,100.00
2023-04-29T02:38:00.354Z,100.00
2023-04-29T02:42:12.822Z,100.00
2023-04-29T02:46:25.623Z,100.00
2023-04-29T02:50:38.212Z,100.00
2023-04-29T02:54:50.685Z,100.00
2023-04-29T02:59:03.109Z,100.00
2023-04-29T03:03:15.661Z,100.00
2023-04-29T03:07:29.454Z,100.00
2023-04-29T03:11:42.224Z,100.00
2023-04-29T03:15:54.805Z,100.00
2023-04-29T03:20:17.355Z,100.00
2023-04-29T03:24:29.857Z,100.00
2023-04-29T03:28:43.261Z,100.00
2023-04-29T03:32:55.754Z,100.00
2023-04-29T03:37:08.220Z,100.00
2023-04-29T03:41:20.716Z,100.00
2023-04-29T03:45:33.803Z,100.00
2023-04-29T03:49:56.226Z,100.00
2023-04-29T03:54:09.872Z,100.00
2023-04-29T03:58:24.412Z,100.00
2023-04-29T04:02:37.003Z,100.00
2023-04-29T04:06:59.581Z,100.00
2023-04-29T04:11:21.651Z,100.00
2023-04-29T04:15:34.145Z,100.00
2023-04-29T04:19:46.617Z,100.00
2023-04-29T04:23:59.158Z,100.00
2023-04-29T04:28:11.868Z,100.00
2023-04-29T04:32:24.653Z,100.00
2023-04-29T04:36:37.775Z,100.00
2023-04-29T04:40:50.275Z,100.00
2023-04-29T04:45:13.014Z,100.00
2023-04-29T04:49:28.237Z,100.00
2023-04-29T04:53:41.804Z,100.00
2023-04-29T04:57:54.237Z,100.00
2023-04-29T05:02:06.792Z,100.00
2023-04-29T05:06:29.553Z,100.00
2023-04-29T05:10:42.304Z,100.00
2023-04-29T05:14:54.781Z,100.00
2023-04-29T05:19:07.291Z,100.00
2023-04-29T05:23:29.832Z,100.00
2023-04-29T05:27:42.664Z,100.00
2023-04-29T05:31:55.134Z,100.00
2023-04-29T05:36:08.105Z,100.00
2023-04-29T05:40:20.555Z,100.00
2023-04-29T05:44:33.839Z,100.00
2023-04-29T05:48:46.895Z,100.00
2023-04-29T05:52:59.365Z,100.00
2023-04-29T05:57:11.984Z,100.00
2023-04-29T06:01:24.440Z,100.00
2023-04-29T06:05:37.511Z,100.00
2023-04-29T06:09:51.826Z,100.00
2023-04-29T06:14:04.738Z,100.00
2023-04-29T06:18:17.244Z,100.00
2023-04-29T06:22:39.699Z,100.00
2023-04-29T06:26:57.841Z,100.00
2023-04-29T06:31:10.356Z,100.00
2023-04-29T06:35:23.892Z,100.00
2023-04-29T06:39:36.362Z,100.00
2023-04-29T06:43:50.102Z,100.00
2023-04-29T06:48:02.602Z,100.00
2023-04-29T06:52:15.686Z,100.00
2023-04-29T06:56:28.184Z,100.00
2023-04-29T07:00:40.671Z,100.00
2023-04-29T07:04:53.337Z,100.00
2023-04-29T07:09:05.904Z,100.00
2023-04-29T07:13:18.355Z,100.00
2023-04-29T07:17:32.250Z,100.00
2023-04-29T07:21:44.709Z,100.00
2023-04-29T07:25:57.159Z,100.00
2023-04-29T07:30:10.030Z,100.00
2023-04-29T07:34:28.131Z,100.00
2023-04-29T07:38:40.985Z,100.00
2023-04-29T07:42:53.544Z,100.00
2023-04-29T07:47:06.461Z,100.00
2023-04-29T07:51:18.901Z,100.00
2023-04-29T07:55:31.898Z,100.00
2023-04-29T07:59:44.321Z,100.00
2023-04-29T08:04:07.247Z,100.00
2023-04-29T08:08:19.974Z,100.00
2023-04-29T08:12:32.614Z,100.00
2023-04-29T08:16:45.127Z,100.00
2023-04-29T08:20:57.656Z,100.00
2023-04-29T08:25:10.727Z,100.00
2023-04-29T08:29:23.234Z,100.00
2023-04-29T08:33:36.096Z,100.00
2023-04-29T08:37:49.002Z,100.00
2023-04-29T08:42:09.627Z,100.00
2023-04-29T08:46:22.466Z,100.00
2023-04-29T08:50:45.154Z,100.00
2023-04-29T08:54:58.548Z,100.00
2023-04-29T08:59:11.613Z,100.00
2023-04-29T09:03:32.808Z,100.00
2023-04-29T09:07:46.918Z,100.00
2023-04-29T09:11:59.870Z,100.00
2023-04-29T09:16:13.632Z,100.00
2023-04-29T09:20:36.193Z,100.00
2023-04-29T09:24:49.717Z,100.00
2023-04-29T09:29:19.105Z,100.00
2023-04-29T09:33:32.204Z,100.00
2023-04-29T09:37:44.653Z,100.00
2023-04-29T09:41:57.069Z,100.00
2023-04-29T09:46:13.832Z,100.00
2023-04-29T09:50:26.630Z,100.00
2023-04-29T09:54:41.576Z,100.00
2023-04-29T09:58:53.985Z,100.00
2023-04-29T10:03:17.117Z,100.00
2023-04-29T10:07:30.245Z,100.00
2023-04-29T10:11:47.128Z,100.00
2023-04-29T10:16:30.392Z,100.00
2023-04-29T10:20:48.267Z,100.00
2023-04-29T10:25:02.966Z,100.00
2023-04-29T10:29:18.325Z,100.00
2023-04-29T10:33:37.140Z,100.00
2023-04-29T10:37:50.325Z,100.00
2023-04-29T10:42:06.616Z,99.65
2023-04-29T10:46:29.317Z,100.00
2023-04-29T10:50:48.098Z,100.00
2023-04-29T10:55:04.963Z,100.00
2023-04-29T10:59:22.506Z,100.00
2023-04-29T11:03:59.491Z,97.42
2023-04-29T11:08:27.324Z,100.00
2023-04-29T11:12:39.819Z,90.03
2023-04-29T11:17:02.414Z,93.28
2023-04-29T11:21:15.360Z,90.25
2023-04-29T11:25:29.210Z,79.78
2023-04-29T11:29:41.910Z,79.90
2023-04-29T11:33:54.412Z,77.12
2023-04-29T11:38:07.404Z,77.34
2023-04-29T11:42:24.214Z,76.88
2023-04-29T11:46:37.047Z,75.43
2023-04-29T11:50:55.722Z,70.01
2023-04-29T11:55:12.639Z,71.89
2023-04-29T11:59:25.458Z,63.83
2023-04-29T12:03:38.411Z,62.09
2023-04-29T12:07:51.989Z,68.08
2023-04-29T12:12:05.902Z,69.59
2023-04-29T12:16:20.002Z,77.21
2023-04-29T12:20:33.268Z,68.84
2023-04-29T12:24:55.224Z,77.52
2023-04-29T12:29:11.982Z,67.87
2023-04-29T12:33:30.194Z,66.07
2023-04-29T12:37:42.729Z,66.21
2023-04-29T12:42:02.664Z,61.59
2023-04-29T12:46:15.597Z,58.20
2023-04-29T12:50:39.410Z,58.73
2023-04-29T12:54:52.419Z,59.00
2023-04-29T12:59:13.453Z,61.43
2023-04-29T13:03:26.148Z,57.21
2023-04-29T13:07:39.700Z,59.13
2023-04-29T13:11:52.589Z,60.49
2023-04-29T13:16:05.532Z,57.19
2023-04-29T13:20:18.301Z,58.63
2023-04-29T13:24:31.045Z,58.64
2023-04-29T13:28:44.332Z,60.61
2023-04-29T13:33:03.377Z,63.81
2023-04-29T13:37:22.556Z,69.77
2023-04-29T13:41:35.830Z,63.21
2023-04-29T13:45:48.975Z,64.62
2023-04-29T14:03:08.388Z,73.14
2023-04-29T14:07:20.864Z,65.72
2023-04-29T14:11:37.986Z,65.61
2023-04-29T14:15:50.715Z,61.84
2023-04-29T14:20:04.848Z,64.14
2023-04-29T14:24:17.472Z,65.06
2023-04-29T14:28:30.455Z,57.75
2023-04-29T14:32:47.277Z,60.60
2023-04-29T14:37:00.132Z,57.84
2023-04-29T14:41:12.826Z,62.83
2023-04-29T14:45:25.355Z,59.93
2023-04-29T14:49:37.791Z,58.21
2023-04-29T14:53:50.297Z,59.68
2023-04-29T14:58:05.715Z,55.32
2023-04-29T15:02:28.275Z,54.92
2023-04-29T15:06:51.205Z,65.11
2023-04-29T15:11:03.980Z,60.48
2023-04-29T15:15:26.772Z,55.24
2023-04-29T15:19:39.235Z,60.85
2023-04-29T15:23:51.742Z,57.72
2023-04-29T15:28:05.377Z,56.24
2023-04-29T15:32:17.899Z,61.00
2023-04-29T15:36:33.974Z,66.60
2023-04-29T15:40:47.260Z,64.34
2023-04-29T15:44:59.745Z,74.12
2023-04-29T15:49:13.157Z,67.14
2023-04-29T15:53:25.615Z,64.03
2023-04-29T15:57:42.672Z,66.08
2023-04-29T16:01:55.088Z,70.12
2023-04-29T16:06:07.855Z,70.96
2023-04-29T16:10:20.528Z,62.50
2023-04-29T16:14:32.972Z,70.93
2023-04-29T16:18:45.399Z,72.25
2023-04-29T16:22:57.826Z,79.19
2023-04-29T16:27:11.291Z,80.24
2023-04-29T16:31:24.432Z,78.70
2023-04-29T16:35:37.665Z,80.62
2023-04-29T16:39:57.558Z,81.91
2023-04-29T16:44:10.142Z,80.00
2023-04-29T16:48:32.789Z,83.89
2023-04-29T16:52:46.925Z,84.29
2023-04-29T16:56:59.387Z,92.61
2023-04-29T17:01:12.127Z,100.00
2023-04-29T17:05:26.690Z,100.00
2023-04-29T17:09:39.137Z,100.00
2023-04-29T17:14:01.579Z,100.00
2023-04-29T17:18:14.254Z,100.00
2023-04-29T17:22:27.183Z,100.00
2023-04-29T17:26:39.664Z,100.00
2023-04-29T17:30:54.301Z,100.00
2023-04-29T17:35:09.590Z,100.00
2023-04-29T17:39:22.048Z,100.00
2023-04-29T17:43:39.553Z,100.00
2023-04-29T17:47:52.139Z,100.00
2023-04-29T17:52:05.580Z,100.00
2023-04-29T17:56:18.271Z,100.00
2023-04-29T18:00:30.930Z,100.00
2023-04-29T18:04:43.363Z,100.00
2023-04-29T18:08:55.907Z,100.00
2023-04-29T18:13:08.357Z,100.00
2023-04-29T18:17:20.935Z,100.00
2023-04-29T18:21:33.553Z,100.00
2023-04-29T18:25:46.174Z,100.00
2023-04-29T18:29:58.729Z,100.00
2023-04-29T18:34:11.388Z,100.00
2023-04-29T18:38:24.017Z,100.00
2023-04-29T18:42:38.289Z,100.00
2023-04-29T18:46:50.777Z,100.00
2023-04-29T18:51:05.090Z,100.00
2023-04-29T18:55:17.849Z,100.00
2023-04-29T18:59:30.440Z,100.00
2023-04-29T19:03:42.894Z,100.00
2023-04-29T19:07:55.990Z,100.00
2023-04-29T19:12:17.544Z,100.00
2023-04-29T19:16:29.991Z,100.00
2023-04-29T19:20:49.594Z,100.00
2023-04-29T19:25:02.105Z,100.00
2023-04-29T19:29:14.695Z,100.00
2023-04-29T19:33:27.284Z,100.00
2023-04-29T19:37:39.770Z,100.00
2023-04-29T19:41:52.273Z,100.00
2023-04-29T19:46:04.786Z,100.00
2023-04-29T19:50:17.363Z,100.00
2023-04-29T19:54:30.046Z,100.00
2023-04-29T19:58:42.700Z,100.00
2023-04-29T20:02:55.343Z,100.00
2023-04-29T20:07:08.076Z,100.00
2023-04-29T20:11:24.716Z,100.00
2023-04-29T20:15:37.236Z,100.00
2023-04-29T20:19:50.318Z,100.00
2023-04-29T20:24:02.881Z,100.00
2023-04-29T20:28:15.446Z,100.00
2023-04-29T20:32:28.166Z,100.00
2023-04-29T20:36:40.840Z,100.00
2023-04-29T20:40:55.157Z,100.00
2023-04-29T20:45:08.690Z,100.00
2023-04-29T20:49:21.206Z,100.00
2023-04-29T20:53:33.880Z,100.00
2023-04-29T20:57:46.446Z,100.00
2023-04-29T21:01:58.979Z,100.00
2023-04-29T21:06:11.583Z,100.00
2023-04-29T21:10:24.431Z,100.00
2023-04-29T21:14:39.438Z,100.00
2023-04-29T21:18:53.485Z,100.00
2023-04-29T21:23:06.038Z,100.00
2023-04-29T21:27:18.608Z,100.00
2023-04-29T21:31:32.047Z,100.00
2023-04-29T21:35:54.611Z,100.00
2023-04-29T21:40:08.248Z,100.00
2023-04-29T21:44:20.742Z,100.00
2023-04-29T21:48:33.337Z,100.00
2023-04-29T21:52:49.663Z,100.00
2023-04-29T21:57:02.500Z,100.00
2023-04-29T22:01:28.204Z,100.00
2023-04-29T22:05:40.728Z,100.00
2023-04-29T22:09:53.473Z,100.00
2023-04-29T22:14:11.130Z,100.00
2023-04-29T22:18:23.770Z,100.00
2023-04-29T22:22:36.474Z,100.00
2023-04-29T22:26:49.578Z,100.00
2023-04-29T22:31:09.896Z,100.00
2023-04-29T22:35:24.027Z,100.00
2023-04-29T22:39:36.515Z,100.00
2023-04-29T22:43:49.045Z,100.00
2023-04-29T22:48:01.598Z,100.00
2023-04-29T22:52:14.307Z,100.00
2023-04-29T22:56:26.987Z,100.00
2023-04-29T23:00:39.461Z,100.00
2023-04-29T23:04:52.594Z,100.00
2023-04-29T23:09:05.087Z,100.00
2023-04-29T23:13:18.399Z,100.00
2023-04-29T23:17:30.931Z,100.00
2023-04-29T23:21:43.405Z,100.00
2023-04-29T23:25:55.830Z,100.00
2023-04-29T23:30:10.011Z,100.00
2023-04-29T23:34:33.241Z,100.00
2023-04-29T23:38:45.729Z,100.00
2023-04-29T23:43:04.888Z,100.00
2023-04-29T23:47:18.744Z,100.00
2023-04-29T23:51:33.033Z,100.00
2023-04-29T23:55:45.453Z,100.00
